Time,TemperatureF,DewpointF,PressureIn,WindDirection,WindDirectionDegrees,WindSpeedMPH,WindSpeedGustMPH,Humidity,HourlyPrecipIn,Conditions,Clouds,dailyrainin,SolarRadiationWatts/m^2,SoftwareType,DateUTC
2013-06-10 00:07:00,48.2,47.1,30.16,West,275,0.0,1.0,96,0.00,RA,FEW,0.00,0.0,WeatherDisplay:10.37,2013-06-10 04:07:00,
2013-06-10 00:17:00,48.1,47.3,30.17,West,275,0.0,0.0,97,0.00,CLR,FEW,0.00,0.0,WeatherDisplay:10.37,2013-06-10 04:17:00,
2013-06-10 00:22:00,47.9,47.1,30.16,West,275,0.0,1.0,97,0.00,CLR,FEW,0.00,0.0,WeatherDisplay:10.37,2013-06-10 04:22:00,
2013-06-10 00:27:00,47.7,46.6,30.16,West,275,0.0,0.0,96,0.00,CLR,FEW,0.00,0.0,WeatherDisplay:10.37,2013-06-10 04:27:00,
2013-06-10 00:32:00,47.4,46.3,30.16,West,275,0.0,1.0,96,0.00,CLR,FEW,0.00,0.0,WeatherDisplay:10.37,2013-06-10 04:32:00,
2013-06-10 00:37:00,47.2,46.4,30.17,West,275,0.0,0.0,97,0.00,CLR,FEW,0.00,0.0,WeatherDisplay:10.37,2013-06-10 04:37:00,
2013-06-10 00:47:00,47.2,46.4,30.17,West,275,0.0,0.0,97,0.00,CLR,FEW,0.00,0.0,WeatherDisplay:10.37,2013-06-10 04:47:00,
2013-06-10 00:52:00,47.5,46.7,30.17,West,275,0.0,0.0,97,0.00,CLR,FEW,0.00,0.0,WeatherDisplay:10.37,2013-06-10 04:52:00,
2013-06-10 01:07:00,47.4,46.6,30.17,West,275,0.0,0.0,97,0.00,CLR,FEW,0.00,0.0,WeatherDisplay:10.37,2013-06-10 05:07:00,
2013-06-10 01:17:00,47.2,46.4,30.17,West,275,0.0,0.0,97,0.00,CLR,FEW,0.00,0.0,WeatherDisplay:10.37,2013-06-10 05:17:00,
2013-06-10 01:22:00,47.3,46.5,30.17,West,275,0.0,0.0,97,0.00,CLR,FEW,0.00,0.0,WeatherDisplay:10.37,2013-06-10 05:22:00,
2013-06-10 01:27:00,47.5,46.7,30.17,West,275,0.0,0.0,97,0.00,CLR,FEW,0.00,0.0,WeatherDisplay:10.37,2013-06-10 05:27:00,
2013-06-10 01:32:00,47.7,46.9,30.17,West,275,0.0,0.0,97,0.00,CLR,FEW,0.00,0.0,WeatherDisplay:10.37,2013-06-10 05:32:00,
2013-06-10 01:37:00,47.8,47.0,30.18,West,275,0.0,0.0,97,0.00,CLR,FEW,0.00,0.0,WeatherDisplay:10.37,2013-06-10 05:37:00,
2013-06-10 01:42:00,47.8,47.0,30.18,West,275,0.0,0.0,97,0.00,CLR,FEW,0.00,0.0,WeatherDisplay:10.37,2013-06-10 05:42:00,
2013-06-10 01:47:00,47.7,46.9,30.17,West,275,0.0,0.0,97,0.00,CLR,FEW,0.00,0.0,WeatherDisplay:10.37,2013-06-10 05:47:00,
2013-06-10 01:52:00,47.5,46.7,30.17,West,275,0.0,1.0,97,0.00,CLR,FEW,0.00,0.0,WeatherDisplay:10.37,2013-06-10 05:52:00,
2013-06-10 01:57:00,47.4,46.6,30.17,West,275,0.0,1.0,97,0.00,CLR,FEW,0.00,0.0,WeatherDisplay:10.37,2013-06-10 05:57:00,
2013-06-10 02:07:00,47.5,46.7,30.16,West,275,0.0,1.0,97,0.00,CLR,FEW,0.00,0.0,WeatherDisplay:10.37,2013-06-10 06:07:00,
2013-06-10 02:17:00,47.6,47.6,30.16,West,275,0.0,0.0,100,0.00,CLR,FEW,0.00,0.0,WeatherDisplay:10.37,2013-06-10 06:17:00,
2013-06-10 02:22:00,47.6,47.6,30.16,West,275,0.0,0.0,100,0.00,CLR,FEW,0.00,0.0,WeatherDisplay:10.37,2013-06-10 06:22:00,
2013-06-10 02:32:00,47.3,46.5,30.17,West,275,0.0,0.0,97,0.00,CLR,FEW,0.00,0.0,WeatherDisplay:10.37,2013-06-10 06:32:00,
2013-06-10 02:37:00,47.1,46.3,30.17,West,275,0.0,0.0,97,0.00,CLR,FEW,0.00,0.0,WeatherDisplay:10.37,2013-06-10 06:37:00,
2013-06-10 02:42:00,46.9,46.1,30.17,West,275,0.0,1.0,97,0.00,CLR,FEW,0.00,0.0,WeatherDisplay:10.37,2013-06-10 06:42:00,
2013-06-10 02:47:00,46.6,45.8,30.17,West,275,0.0,1.0,97,0.00,CLR,FEW,0.00,0.0,WeatherDisplay:10.37,2013-06-10 06:47:00,
2013-06-10 02:52:00,46.4,45.6,30.16,West,275,0.0,0.0,97,0.00,CLR,FEW,0.00,0.0,WeatherDisplay:10.37,2013-06-10 06:52:00,
2013-06-10 02:57:00,46.2,45.4,30.16,West,275,0.0,0.0,97,0.00,CLR,FEW,0.00,0.0,WeatherDisplay:10.37,2013-06-10 06:57:00,
2013-06-10 03:07:00,45.9,45.1,30.16,West,275,0.0,0.0,97,0.00,CLR,FEW,0.00,0.0,WeatherDisplay:10.37,2013-06-10 07:07:00,
2013-06-10 03:17:00,45.9,45.1,30.16,West,275,0.0,1.0,97,0.00,CLR,FEW,0.00,0.0,WeatherDisplay:10.37,2013-06-10 07:17:00,
2013-06-10 03:27:00,45.8,45.0,30.16,West,275,0.0,0.0,97,0.00,CLR,FEW,0.00,0.0,WeatherDisplay:10.37,2013-06-10 07:27:00,
2013-06-10 03:32:00,45.7,44.9,30.16,West,275,0.0,0.0,97,0.00,BKN,FEW,0.00,0.0,WeatherDisplay:10.37,2013-06-10 07:32:00,
2013-06-10 03:37:00,45.7,44.9,30.16,West,275,0.0,0.0,97,0.00,BKN,FEW,0.00,0.0,WeatherDisplay:10.37,2013-06-10 07:37:00,
2013-06-10 03:47:00,45.6,44.8,30.15,West,275,0.0,0.0,97,0.00,SCT,FEW,0.00,0.0,WeatherDisplay:10.37,2013-06-10 07:47:00,
2013-06-10 03:52:00,45.7,44.9,30.16,West,275,0.0,1.0,97,0.00,SCT,FEW,0.00,0.0,WeatherDisplay:10.37,2013-06-10 07:52:00,
2013-06-10 03:57:00,45.7,44.9,30.16,West,275,0.0,0.0,97,0.00,SCT,FEW,0.00,0.0,WeatherDisplay:10.37,2013-06-10 07:57:00,
2013-06-10 04:07:00,45.6,45.6,30.16,West,275,0.0,0.0,100,0.00,OVC,FEW,0.00,0.0,WeatherDisplay:10.37,2013-06-10 08:07:00,
2013-06-10 04:17:00,45.6,45.6,30.16,West,275,0.0,0.0,100,0.00,SCT,FEW,0.00,0.0,WeatherDisplay:10.37,2013-06-10 08:17:00,
2013-06-10 04:22:00,45.6,45.6,30.16,West,275,0.0,1.0,100,0.00,SCT,FEW,0.00,0.0,WeatherDisplay:10.37,2013-06-10 08:22:00,
2013-06-10 04:27:00,45.5,45.5,30.16,West,275,0.0,1.0,100,0.00,SCT,FEW,0.00,0.0,WeatherDisplay:10.37,2013-06-10 08:27:00,
2013-06-10 04:32:00,45.4,45.4,30.17,West,275,0.0,0.0,100,0.00,FEW,FEW,0.00,0.0,WeatherDisplay:10.37,2013-06-10 08:32:00,
2013-06-10 04:42:00,45.5,45.5,30.16,West,275,0.0,1.0,100,0.00,FEW,FEW,0.00,0.0,WeatherDisplay:10.37,2013-06-10 08:42:00,
2013-06-10 04:47:00,45.5,45.5,30.17,West,275,0.0,0.0,100,0.00,FEW,FEW,0.00,0.0,WeatherDisplay:10.37,2013-06-10 08:47:00,
2013-06-10 04:52:00,45.5,45.5,30.17,West,275,0.0,0.0,100,0.00,FEW,FEW,0.00,0.0,WeatherDisplay:10.37,2013-06-10 08:52:00,
2013-06-10 04:57:00,45.5,45.5,30.17,West,275,0.0,0.0,100,0.00,FEW,FEW,0.00,5.0,WeatherDisplay:10.37,2013-06-10 08:57:00,
2013-06-10 05:07:00,45.5,45.5,30.17,West,275,0.0,0.0,100,0.00,SCT,FEW,0.00,7.0,WeatherDisplay:10.37,2013-06-10 09:07:00,
2013-06-10 05:17:00,45.5,45.5,30.17,West,275,0.0,0.0,100,0.00,SCT,FEW,0.00,12.0,WeatherDisplay:10.37,2013-06-10 09:17:00,
2013-06-10 05:27:00,45.3,45.3,30.17,West,275,0.0,1.0,100,0.00,SCT,FEW,0.00,19.0,WeatherDisplay:10.37,2013-06-10 09:27:00,
2013-06-10 05:32:00,45.1,45.1,30.18,West,275,0.0,0.0,100,0.00,SCT,FEW,0.00,21.0,WeatherDisplay:10.37,2013-06-10 09:32:00,
2013-06-10 05:37:00,45.1,45.1,30.18,West,275,0.0,1.0,100,0.00,SCT,FEW,0.00,25.0,WeatherDisplay:10.37,2013-06-10 09:37:00,
2013-06-10 05:42:00,45.0,45.0,30.18,West,275,0.0,0.0,100,0.00,SCT,FEW,0.00,26.0,WeatherDisplay:10.37,2013-06-10 09:42:00,
2013-06-10 05:47:00,45.0,45.0,30.18,West,275,0.0,1.0,100,0.00,SCT,FEW,0.00,28.0,WeatherDisplay:10.37,2013-06-10 09:47:00,
2013-06-10 05:52:00,45.0,45.0,30.18,West,275,0.0,1.0,100,0.00,SCT,FEW,0.00,30.0,WeatherDisplay:10.37,2013-06-10 09:52:00,
2013-06-10 05:57:00,45.1,45.1,30.19,West,260,0.0,3.0,100,0.00,SCT,FEW,0.00,33.0,WeatherDisplay:10.37,2013-06-10 09:57:00,
2013-06-10 06:07:00,45.0,45.0,30.19,WSW,242,0.0,1.0,100,0.00,SCT,FEW,0.00,46.0,WeatherDisplay:10.37,2013-06-10 10:07:00,
2013-06-10 06:17:00,44.9,44.9,30.18,WSW,242,0.0,1.0,100,0.00,SCT,FEW,0.00,60.0,WeatherDisplay:10.37,2013-06-10 10:17:00,
2013-06-10 06:22:00,44.9,44.9,30.18,WSW,242,0.0,1.0,100,0.00,SCT,FEW,0.00,70.0,WeatherDisplay:10.37,2013-06-10 10:22:00,
2013-06-10 06:32:00,44.7,44.7,30.18,WSW,242,1.0,2.0,100,0.00,OVC,FEW,0.00,105.0,WeatherDisplay:10.37,2013-06-10 10:32:00,
2013-06-10 06:37:00,44.7,44.7,30.18,WSW,242,0.0,1.0,100,0.00,OVC,FEW,0.00,120.0,WeatherDisplay:10.37,2013-06-10 10:37:00,
2013-06-10 06:42:00,44.8,44.8,30.18,WSW,240,0.0,1.0,100,0.00,OVC,FEW,0.00,130.0,WeatherDisplay:10.37,2013-06-10 10:42:00,
2013-06-10 06:47:00,44.9,44.9,30.18,SW,222,0.0,1.0,100,0.00,OVC,FEW,0.00,121.0,WeatherDisplay:10.37,2013-06-10 10:47:00,
2013-06-10 06:52:00,44.9,44.9,30.18,SW,219,0.0,1.0,100,0.00,OVC,FEW,0.00,127.0,WeatherDisplay:10.37,2013-06-10 10:52:00,
2013-06-10 07:07:00,45.4,45.4,30.18,SW,219,0.0,1.0,100,0.00,OVC,FEW,0.00,160.0,WeatherDisplay:10.37,2013-06-10 11:07:00,
2013-06-10 07:17:00,45.7,45.7,30.18,SW,219,0.0,1.0,100,0.00,SCT,FEW,0.00,200.0,WeatherDisplay:10.37,2013-06-10 11:17:00,
2013-06-10 07:22:00,46.0,46.0,30.18,SW,219,0.0,1.0,100,0.00,SCT,FEW,0.00,185.0,WeatherDisplay:10.37,2013-06-10 11:22:00,
2013-06-10 07:32:00,46.0,46.0,30.19,SW,219,0.0,1.0,100,0.00,SCT,FEW,0.00,171.0,WeatherDisplay:10.37,2013-06-10 11:32:00,
2013-06-10 07:37:00,46.0,46.0,30.19,SW,218,0.0,1.0,100,0.00,SCT,FEW,0.00,206.0,WeatherDisplay:10.37,2013-06-10 11:37:00,
2013-06-10 07:47:00,46.8,46.8,30.19,SW,218,0.0,1.0,100,0.00,SCT,FEW,0.00,334.0,WeatherDisplay:10.37,2013-06-10 11:47:00,
2013-06-10 07:52:00,47.4,47.4,30.19,SW,218,0.0,0.0,100,0.00,SCT,FEW,0.00,311.0,WeatherDisplay:10.37,2013-06-10 11:52:00,
2013-06-10 07:57:00,47.9,47.9,30.19,SW,218,0.0,0.0,100,0.00,SCT,FEW,0.00,332.0,WeatherDisplay:10.37,2013-06-10 11:57:00,
2013-06-10 08:07:00,48.8,48.8,30.19,SW,218,0.0,1.0,100,0.00,CLR,FEW,0.00,381.0,WeatherDisplay:10.37,2013-06-10 12:07:00,
2013-06-10 08:17:00,49.2,49.2,30.19,SW,214,0.0,2.0,100,0.00,CLR,FEW,0.00,373.0,WeatherDisplay:10.37,2013-06-10 12:17:00,
2013-06-10 08:22:00,49.1,49.1,30.19,SSW,213,0.0,1.0,100,0.00,CLR,FEW,0.00,429.0,WeatherDisplay:10.37,2013-06-10 12:22:00,
2013-06-10 08:37:00,50.6,50.6,30.19,SSW,211,0.0,1.0,100,0.00,CLR,FEW,0.00,432.0,WeatherDisplay:10.37,2013-06-10 12:37:00,
2013-06-10 08:42:00,51.1,51.1,30.19,SSW,210,0.0,1.0,100,0.00,CLR,FEW,0.00,508.0,WeatherDisplay:10.37,2013-06-10 12:42:00,
2013-06-10 08:47:00,51.6,51.6,30.18,SSW,208,0.0,2.0,100,0.00,CLR,FEW,0.00,573.0,WeatherDisplay:10.37,2013-06-10 12:47:00,
2013-06-10 08:52:00,52.1,52.1,30.18,SSW,198,1.0,3.0,100,0.00,CLR,FEW,0.00,536.0,WeatherDisplay:10.37,2013-06-10 12:52:00,
2013-06-10 08:57:00,52.5,52.5,30.18,South,191,0.0,3.0,100,0.00,CLR,FEW,0.00,570.0,WeatherDisplay:10.37,2013-06-10 12:57:00,
2013-06-10 09:07:00,53.4,52.3,30.18,SSE,165,0.0,2.0,96,0.00,CLR,FEW,0.00,564.0,WeatherDisplay:10.37,2013-06-10 13:07:00,
2013-06-10 09:17:00,54.9,51.4,30.17,SSE,163,0.0,2.0,88,0.00,CLR,FEW,0.00,438.0,WeatherDisplay:10.37,2013-06-10 13:17:00,
2013-06-10 09:22:00,55.4,50.9,30.17,SSE,161,0.0,2.0,85,0.00,CLR,FEW,0.00,431.0,WeatherDisplay:10.37,2013-06-10 13:22:00,
2013-06-10 09:27:00,55.7,49.6,30.17,SSE,159,0.0,1.0,80,0.00,CLR,FEW,0.00,431.0,WeatherDisplay:10.37,2013-06-10 13:27:00,
2013-06-10 09:37:00,56.7,50.6,30.17,SSE,160,0.0,1.0,80,0.00,CLR,FEW,0.00,452.0,WeatherDisplay:10.37,2013-06-10 13:37:00,
2013-06-10 09:42:00,57.4,51.6,30.17,SSE,160,1.0,3.0,81,0.00,CLR,FEW,0.00,548.0,WeatherDisplay:10.37,2013-06-10 13:42:00,
2013-06-10 09:47:00,58.0,52.9,30.17,SSE,159,0.0,2.0,83,0.00,CLR,FEW,0.00,636.0,WeatherDisplay:10.37,2013-06-10 13:47:00,
2013-06-10 09:52:00,58.3,51.4,30.17,SSE,158,0.0,3.0,78,0.00,CLR,FEW,0.00,640.0,WeatherDisplay:10.37,2013-06-10 13:52:00,
2013-06-10 09:57:00,59.0,51.4,30.17,SSE,158,0.0,1.0,76,0.00,CLR,FEW,0.00,684.0,WeatherDisplay:10.37,2013-06-10 13:57:00,
2013-06-10 10:07:00,60.3,52.0,30.16,SSE,162,1.0,3.0,74,0.00,CLR,FEW,0.00,698.0,WeatherDisplay:10.37,2013-06-10 14:07:00,
2013-06-10 10:17:00,61.1,51.6,30.16,SSE,165,1.0,3.0,71,0.00,CLR,FEW,0.00,691.0,WeatherDisplay:10.37,2013-06-10 14:17:00,
2013-06-10 10:22:00,61.2,51.4,30.16,SSE,164,0.0,3.0,70,0.00,CLR,FEW,0.00,728.0,WeatherDisplay:10.37,2013-06-10 14:22:00,
2013-06-10 10:27:00,61.7,51.0,30.16,SSE,163,0.0,2.0,68,0.00,CLR,FEW,0.00,733.0,WeatherDisplay:10.37,2013-06-10 14:27:00,
2013-06-10 10:32:00,62.0,49.7,30.16,SSE,161,0.0,2.0,64,0.00,CLR,FEW,0.00,752.0,WeatherDisplay:10.37,2013-06-10 14:32:00,
2013-06-10 10:37:00,62.4,48.3,30.16,SSE,161,0.0,1.0,60,0.00,CLR,FEW,0.00,842.0,WeatherDisplay:10.37,2013-06-10 14:37:00,
2013-06-10 10:42:00,63.0,47.5,30.16,SSE,159,0.0,4.0,57,0.00,CLR,FEW,0.00,680.0,WeatherDisplay:10.37,2013-06-10 14:42:00,
2013-06-10 10:47:00,63.4,47.0,30.16,SSE,153,1.0,4.0,55,0.00,CLR,FEW,0.00,831.0,WeatherDisplay:10.37,2013-06-10 14:47:00,
2013-06-10 10:57:00,64.0,49.4,30.15,SSE,148,0.0,5.0,59,0.00,CLR,FEW,0.00,854.0,WeatherDisplay:10.37,2013-06-10 14:57:00,
2013-06-10 11:07:00,64.4,47.4,30.15,SSE,149,0.0,4.0,54,0.00,CLR,FEW,0.00,791.0,WeatherDisplay:10.37,2013-06-10 15:07:00,
2013-06-10 11:22:00,65.5,45.8,30.15,South,178,1.0,3.0,49,0.00,CLR,FEW,0.00,896.0,WeatherDisplay:10.37,2013-06-10 15:22:00,
2013-06-10 11:27:00,65.8,43.9,30.15,South,169,1.0,4.0,45,0.00,CLR,FEW,0.00,940.0,WeatherDisplay:10.37,2013-06-10 15:27:00,
2013-06-10 11:32:00,66.1,43.6,30.15,SSE,161,1.0,5.0,44,0.00,CLR,FEW,0.00,661.0,WeatherDisplay:10.37,2013-06-10 15:32:00,
2013-06-10 11:42:00,66.9,46.0,30.15,SE,142,1.0,3.0,47,0.00,CLR,FEW,0.00,965.0,WeatherDisplay:10.37,2013-06-10 15:42:00,
2013-06-10 11:52:00,67.4,44.1,30.15,SE,137,0.0,4.0,43,0.00,CLR,FEW,0.00,916.0,WeatherDisplay:10.37,2013-06-10 15:52:00,
2013-06-10 11:57:00,67.8,42.6,30.14,SSE,151,0.0,3.0,40,0.00,CLR,FEW,0.00,944.0,WeatherDisplay:10.37,2013-06-10 15:57:00,
2013-06-10 12:07:00,68.4,44.4,30.14,SE,145,2.0,5.0,42,0.00,CLR,FEW,0.00,963.0,WeatherDisplay:10.37,2013-06-10 16:07:00,
2013-06-10 12:17:00,68.4,41.8,30.13,SE,128,2.0,5.0,38,0.00,CLR,FEW,0.00,891.0,WeatherDisplay:10.37,2013-06-10 16:17:00,
2013-06-10 12:22:00,68.9,43.5,30.12,SE,127,2.0,4.0,40,0.00,CLR,FEW,0.00,932.0,WeatherDisplay:10.37,2013-06-10 16:22:00,
2013-06-10 12:27:00,69.2,42.5,30.12,SE,138,2.0,4.0,38,0.00,CLR,FEW,0.00,918.0,WeatherDisplay:10.37,2013-06-10 16:27:00,
2013-06-10 12:32:00,68.9,40.8,30.12,SE,145,3.0,4.0,36,0.00,CLR,FEW,0.00,865.0,WeatherDisplay:10.37,2013-06-10 16:32:00,
2013-06-10 12:37:00,68.6,41.9,30.12,SSE,148,2.0,5.0,38,0.00,CLR,FEW,0.00,1000.0,WeatherDisplay:10.37,2013-06-10 16:37:00,
2013-06-10 12:42:00,68.8,45.4,30.12,SE,145,2.0,5.0,43,0.00,CLR,FEW,0.00,1018.0,WeatherDisplay:10.37,2013-06-10 16:42:00,
2013-06-10 12:52:00,69.2,46.4,30.12,SSE,147,3.0,5.0,44,0.00,CLR,FEW,0.00,916.0,WeatherDisplay:10.37,2013-06-10 16:52:00,
2013-06-10 13:07:00,69.5,45.4,30.11,South,171,2.0,5.0,42,0.00,CLR,FEW,0.00,933.0,WeatherDisplay:10.37,2013-06-10 17:07:00,
2013-06-10 13:17:00,69.9,47.6,30.11,SSE,156,2.0,5.0,45,0.00,CLR,FEW,0.00,870.0,WeatherDisplay:10.37,2013-06-10 17:17:00,
2013-06-10 13:22:00,70.2,47.3,30.11,SE,146,1.0,4.0,44,0.00,CLR,FEW,0.00,814.0,WeatherDisplay:10.37,2013-06-10 17:22:00,
2013-06-10 13:27:00,70.2,47.3,30.11,SSE,147,1.0,4.0,44,0.00,CLR,FEW,0.00,877.0,WeatherDisplay:10.37,2013-06-10 17:27:00,
2013-06-10 13:32:00,70.0,47.1,30.11,SSE,156,1.0,4.0,44,0.00,CLR,FEW,0.00,872.0,WeatherDisplay:10.37,2013-06-10 17:32:00,
2013-06-10 13:42:00,70.0,47.0,30.11,South,175,2.0,4.0,44,0.00,CLR,FEW,0.00,712.0,WeatherDisplay:10.37,2013-06-10 17:42:00,
2013-06-10 13:47:00,70.0,47.1,30.10,South,181,2.0,3.0,44,0.00,CLR,FEW,0.00,768.0,WeatherDisplay:10.37,2013-06-10 17:47:00,
2013-06-10 13:52:00,70.0,47.1,30.11,South,181,1.0,5.0,44,0.00,CLR,FEW,0.00,805.0,WeatherDisplay:10.37,2013-06-10 17:52:00,
2013-06-10 14:07:00,70.6,46.4,30.10,SE,144,1.0,4.0,42,0.00,CLR,FEW,0.00,751.0,WeatherDisplay:10.37,2013-06-10 18:07:00,
2013-06-10 14:17:00,71.0,49.2,30.10,South,178,0.0,4.0,46,0.00,CLR,FEW,0.00,747.0,WeatherDisplay:10.37,2013-06-10 18:17:00,
2013-06-10 14:27:00,71.5,47.2,30.09,South,172,0.0,4.0,42,0.00,CLR,FEW,0.00,696.0,WeatherDisplay:10.37,2013-06-10 18:27:00,
2013-06-10 14:32:00,71.6,49.7,30.09,South,180,1.0,5.0,46,0.00,CLR,FEW,0.00,661.0,WeatherDisplay:10.37,2013-06-10 18:32:00,
2013-06-10 14:37:00,71.4,47.7,30.09,South,186,1.0,6.0,43,0.00,CLR,FEW,0.00,680.0,WeatherDisplay:10.37,2013-06-10 18:37:00,
2013-06-10 14:42:00,71.2,46.9,30.09,SSE,164,1.0,5.0,42,0.00,CLR,FEW,0.00,645.0,WeatherDisplay:10.37,2013-06-10 18:42:00,
2013-06-10 14:47:00,71.0,48.0,30.09,SSE,162,2.0,7.0,44,0.00,CLR,FEW,0.00,675.0,WeatherDisplay:10.37,2013-06-10 18:47:00,
2013-06-10 14:57:00,71.1,48.7,30.08,SSE,166,2.0,5.0,45,0.00,CLR,FEW,0.00,540.0,WeatherDisplay:10.37,2013-06-10 18:57:00,
2013-06-10 15:07:00,70.8,47.8,30.08,SSE,157,2.0,6.0,44,0.00,CLR,FEW,0.00,469.0,WeatherDisplay:10.37,2013-06-10 19:07:00,
2013-06-10 15:17:00,70.2,48.4,30.08,South,184,2.0,7.0,46,0.00,CLR,FEW,0.00,443.0,WeatherDisplay:10.37,2013-06-10 19:17:00,
2013-06-10 15:22:00,70.0,49.4,30.08,South,188,2.0,5.0,48,0.00,CLR,FEW,0.00,439.0,WeatherDisplay:10.37,2013-06-10 19:22:00,
2013-06-10 15:27:00,69.8,48.7,30.07,South,182,2.0,5.0,47,0.00,CLR,FEW,0.00,473.0,WeatherDisplay:10.37,2013-06-10 19:27:00,
2013-06-10 15:32:00,69.7,50.3,30.07,South,176,5.0,7.0,50,0.00,CLR,FEW,0.00,445.0,WeatherDisplay:10.37,2013-06-10 19:32:00,
2013-06-10 15:42:00,69.8,50.8,30.07,South,175,0.0,6.0,51,0.00,CLR,FEW,0.00,459.0,WeatherDisplay:10.37,2013-06-10 19:42:00,
2013-06-10 15:47:00,70.1,50.6,30.07,SSW,192,0.0,7.0,50,0.00,CLR,FEW,0.00,478.0,WeatherDisplay:10.37,2013-06-10 19:47:00,
2013-06-10 15:57:00,70.3,51.8,30.07,South,189,1.0,5.0,52,0.00,CLR,FEW,0.00,483.0,WeatherDisplay:10.37,2013-06-10 19:57:00,
2013-06-10 16:17:00,69.6,48.5,30.07,South,181,3.0,9.0,47,0.00,FEW,FEW,0.00,425.0,WeatherDisplay:10.37,2013-06-10 20:17:00,
2013-06-10 16:27:00,69.2,48.7,30.06,South,177,2.0,12.0,48,0.00,FEW,FEW,0.00,376.0,WeatherDisplay:10.37,2013-06-10 20:27:00,
2013-06-10 16:32:00,68.9,47.3,30.06,South,174,6.0,12.0,46,0.00,FEW,FEW,0.00,350.0,WeatherDisplay:10.37,2013-06-10 20:32:00,
2013-06-10 16:37:00,68.7,47.6,30.06,South,179,2.0,9.0,47,0.00,FEW,FEW,0.00,311.0,WeatherDisplay:10.37,2013-06-10 20:37:00,
2013-06-10 16:42:00,68.7,48.2,30.06,South,182,1.0,6.0,48,0.00,FEW,FEW,0.00,287.0,WeatherDisplay:10.37,2013-06-10 20:42:00,
2013-06-10 16:52:00,68.3,45.6,30.05,South,179,5.0,10.0,44,0.00,FEW,FEW,0.00,248.0,WeatherDisplay:10.37,2013-06-10 20:52:00,
2013-06-10 16:57:00,68.2,46.6,30.05,South,182,2.0,6.0,46,0.00,FEW,FEW,0.00,239.0,WeatherDisplay:10.37,2013-06-10 20:57:00,
2013-06-10 17:07:00,67.9,48.0,30.05,South,185,1.0,8.0,49,0.00,CLR,FEW,0.00,234.0,WeatherDisplay:10.37,2013-06-10 21:07:00,
2013-06-10 17:17:00,67.7,47.3,30.05,South,179,2.0,5.0,48,0.00,CLR,FEW,0.00,218.0,WeatherDisplay:10.37,2013-06-10 21:17:00,
2013-06-10 17:22:00,67.7,47.3,30.05,South,179,2.0,5.0,48,0.00,CLR,FEW,0.00,206.0,WeatherDisplay:10.37,2013-06-10 21:22:00,
2013-06-10 17:27:00,67.6,49.3,30.05,South,176,1.0,7.0,52,0.00,CLR,FEW,0.00,199.0,WeatherDisplay:10.37,2013-06-10 21:27:00,
2013-06-10 17:37:00,67.4,49.2,30.04,South,174,1.0,7.0,52,0.00,CLR,FEW,0.00,186.0,WeatherDisplay:10.37,2013-06-10 21:37:00,
2013-06-10 17:42:00,67.3,50.6,30.04,South,178,1.0,4.0,55,0.00,CLR,FEW,0.00,183.0,WeatherDisplay:10.37,2013-06-10 21:42:00,
2013-06-10 17:47:00,67.1,49.9,30.04,South,181,3.0,5.0,54,0.00,CLR,FEW,0.00,181.0,WeatherDisplay:10.37,2013-06-10 21:47:00,
2013-06-10 17:52:00,67.0,50.3,30.04,South,182,1.0,5.0,55,0.00,CLR,FEW,0.00,169.0,WeatherDisplay:10.37,2013-06-10 21:52:00,
2013-06-10 18:07:00,66.7,51.5,30.04,SSE,160,2.0,5.0,58,0.00,CLR,FEW,0.00,151.0,WeatherDisplay:10.37,2013-06-10 22:07:00,
2013-06-10 18:17:00,66.4,51.6,30.04,South,182,1.0,7.0,59,0.00,CLR,FEW,0.00,121.0,WeatherDisplay:10.37,2013-06-10 22:17:00,
2013-06-10 18:22:00,66.2,51.9,30.04,South,185,0.0,4.0,60,0.00,CLR,FEW,0.00,116.0,WeatherDisplay:10.37,2013-06-10 22:22:00,
2013-06-10 18:27:00,66.0,51.7,30.04,South,187,3.0,9.0,60,0.00,CLR,FEW,0.00,111.0,WeatherDisplay:10.37,2013-06-10 22:27:00,
2013-06-10 18:32:00,65.7,52.4,30.04,South,179,0.0,9.0,62,0.00,CLR,FEW,0.00,97.0,WeatherDisplay:10.37,2013-06-10 22:32:00,
2013-06-10 18:37:00,65.5,52.1,30.03,South,178,1.0,4.0,62,0.00,CLR,FEW,0.00,90.0,WeatherDisplay:10.37,2013-06-10 22:37:00,
2013-06-10 18:47:00,65.1,51.3,30.03,South,177,1.0,6.0,61,0.00,CLR,FEW,0.00,76.0,WeatherDisplay:10.37,2013-06-10 22:47:00,
2013-06-10 18:57:00,64.8,51.9,30.03,South,176,0.0,2.0,63,0.00,CLR,FEW,0.00,62.0,WeatherDisplay:10.37,2013-06-10 22:57:00,
2013-06-10 19:07:00,64.4,52.4,30.03,South,170,1.0,4.0,65,0.00,CLR,FEW,0.00,47.0,WeatherDisplay:10.37,2013-06-10 23:07:00,
2013-06-10 19:17:00,64.0,52.4,30.03,SSE,160,0.0,3.0,66,0.00,CLR,FEW,0.00,39.0,WeatherDisplay:10.37,2013-06-10 23:17:00,
2013-06-10 19:22:00,63.8,52.6,30.03,SSE,161,0.0,1.0,67,0.00,CLR,FEW,0.00,35.0,WeatherDisplay:10.37,2013-06-10 23:22:00,
2013-06-10 19:27:00,63.5,52.7,30.03,SSE,161,0.0,2.0,68,0.00,CLR,FEW,0.00,28.0,WeatherDisplay:10.37,2013-06-10 23:27:00,
2013-06-10 19:37:00,63.0,52.3,30.02,SSE,167,0.0,2.0,68,0.00,CLR,FEW,0.00,21.0,WeatherDisplay:10.37,2013-06-10 23:37:00,
2013-06-10 19:42:00,62.8,52.1,30.02,SSE,167,0.0,0.0,68,0.00,CLR,FEW,0.00,18.0,WeatherDisplay:10.37,2013-06-10 23:42:00,
2013-06-10 19:52:00,62.4,51.3,30.02,SSE,151,1.0,3.0,67,0.00,CLR,FEW,0.00,12.0,WeatherDisplay:10.37,2013-06-10 23:52:00,
2013-06-10 19:57:00,62.3,51.2,30.02,SSE,148,0.0,2.0,67,0.00,CLR,FEW,0.00,11.0,WeatherDisplay:10.37,2013-06-10 23:57:00,
2013-06-10 20:07:00,62.1,51.8,30.01,SSE,148,0.0,0.0,69,0.00,CLR,FEW,0.00,5.0,WeatherDisplay:10.37,2013-06-11 00:07:00,
2013-06-10 20:17:00,61.5,52.0,30.01,SSE,150,0.0,2.0,71,0.00,CLR,FEW,0.00,0.0,WeatherDisplay:10.37,2013-06-11 00:17:00,
2013-06-10 20:27:00,60.7,51.6,30.01,SSE,150,0.0,1.0,72,0.00,CLR,FEW,0.00,0.0,WeatherDisplay:10.37,2013-06-11 00:27:00,
2013-06-10 20:32:00,60.3,51.6,30.01,SSE,150,0.0,1.0,73,0.00,CLR,FEW,0.00,0.0,WeatherDisplay:10.37,2013-06-11 00:32:00,
2013-06-10 20:37:00,60.1,51.8,30.01,SSE,150,0.0,0.0,74,0.00,CLR,FEW,0.00,0.0,WeatherDisplay:10.37,2013-06-11 00:37:00,
2013-06-10 20:47:00,59.7,51.0,30.01,SSE,150,0.0,1.0,73,0.00,CLR,FEW,0.00,0.0,WeatherDisplay:10.37,2013-06-11 00:47:00,
2013-06-10 20:52:00,59.6,50.9,30.01,SSE,150,0.0,1.0,73,0.00,CLR,FEW,0.00,0.0,WeatherDisplay:10.37,2013-06-11 00:52:00,
2013-06-10 21:07:00,60.1,49.9,30.00,SE,124,1.0,5.0,69,0.00,CLR,FEW,0.00,0.0,WeatherDisplay:10.37,2013-06-11 01:07:00,
2013-06-10 21:17:00,60.2,50.0,30.00,South,169,0.0,6.0,69,0.00,CLR,FEW,0.00,0.0,WeatherDisplay:10.37,2013-06-11 01:17:00,
2013-06-10 21:27:00,60.1,49.9,30.00,SSE,154,1.0,3.0,69,0.00,CLR,FEW,0.00,0.0,WeatherDisplay:10.37,2013-06-11 01:27:00,
2013-06-10 21:32:00,59.9,49.7,30.00,SSE,151,0.0,1.0,69,0.00,CLR,FEW,0.00,0.0,WeatherDisplay:10.37,2013-06-11 01:32:00,
2013-06-10 21:42:00,59.5,49.7,30.00,SE,130,0.0,1.0,70,0.00,CLR,FEW,0.00,0.0,WeatherDisplay:10.37,2013-06-11 01:42:00,
2013-06-10 21:52:00,59.1,49.3,30.00,SE,130,0.0,1.0,70,0.00,CLR,FEW,0.00,0.0,WeatherDisplay:10.37,2013-06-11 01:52:00,
2013-06-10 21:57:00,59.0,49.2,30.00,SE,130,0.0,2.0,70,0.00,CLR,FEW,0.00,0.0,WeatherDisplay:10.37,2013-06-11 01:57:00,
2013-06-10 22:07:00,59.1,48.5,30.00,SE,141,0.0,4.0,68,0.00,BKN,FEW,0.00,0.0,WeatherDisplay:10.37,2013-06-11 02:07:00,
2013-06-10 22:17:00,59.2,48.2,30.00,SE,143,1.0,4.0,67,0.00,BKN,FEW,0.00,0.0,WeatherDisplay:10.37,2013-06-11 02:17:00,
2013-06-10 22:22:00,59.3,47.9,30.00,ESE,116,2.0,5.0,66,0.00,BKN,FEW,0.00,0.0,WeatherDisplay:10.37,2013-06-11 02:22:00,
2013-06-10 22:27:00,59.3,48.4,29.99,ESE,105,0.0,2.0,67,0.00,BKN,FEW,0.00,0.0,WeatherDisplay:10.37,2013-06-11 02:27:00,
2013-06-10 22:37:00,59.1,48.1,29.99,ESE,105,0.0,4.0,67,0.00,BKN,FEW,0.00,0.0,WeatherDisplay:10.37,2013-06-11 02:37:00,
2013-06-10 22:42:00,59.0,47.7,29.99,ESE,105,0.0,1.0,66,0.00,BKN,FEW,0.00,0.0,WeatherDisplay:10.37,2013-06-11 02:42:00,
2013-06-10 22:47:00,58.9,48.0,29.98,ESE,105,0.0,0.0,67,0.00,BKN,FEW,0.00,0.0,WeatherDisplay:10.37,2013-06-11 02:47:00,
2013-06-10 22:52:00,58.7,48.2,29.98,ESE,105,0.0,0.0,68,0.00,BKN,FEW,0.00,0.0,WeatherDisplay:10.37,2013-06-11 02:52:00,
2013-06-10 22:57:00,58.5,48.0,29.98,ESE,105,0.0,1.0,68,0.00,BKN,FEW,0.00,0.0,WeatherDisplay:10.37,2013-06-11 02:57:00,
2013-06-10 23:07:00,58.0,48.3,29.98,ESE,105,0.0,1.0,70,0.00,-RA,FEW,0.00,0.0,WeatherDisplay:10.37,2013-06-11 03:07:00,
2013-06-10 23:17:00,57.8,48.1,29.97,ESE,105,0.0,2.0,70,0.00,-RA,FEW,0.00,0.0,WeatherDisplay:10.37,2013-06-11 03:17:00,
2013-06-10 23:27:00,57.3,48.4,29.97,ENE,71,0.0,3.0,72,0.00,-RA,FEW,0.00,0.0,WeatherDisplay:10.37,2013-06-11 03:27:00,
2013-06-10 23:32:00,57.2,48.3,29.97,ENE,67,0.0,3.0,72,0.00,-RA,FEW,0.00,0.0,WeatherDisplay:10.37,2013-06-11 03:32:00,
2013-06-10 23:42:00,57.1,47.8,29.96,ENE,65,0.0,2.0,71,0.00,-RA,FEW,0.00,0.0,WeatherDisplay:10.37,2013-06-11 03:42:00,
2013-06-10 23:47:00,57.2,48.3,29.96,ENE,65,0.0,3.0,72,0.00,-RA,FEW,0.00,0.0,WeatherDisplay:10.37,2013-06-11 03:47:00,
2013-06-10 23:52:00,57.2,48.3,29.95,ENE,72,2.0,3.0,72,0.00,-RA,FEW,0.00,0.0,WeatherDisplay:10.37,2013-06-11 03:52:00,
2013-06-10 23:57:00,57.2,48.3,29.96,ESE,104,1.0,5.0,72,0.00,-RA,FEW,0.00,0.0,WeatherDisplay:10.37,2013-06-11 03:57:00,